Main page
METAR-TAF:

METAR-TAF

Airports :

Kirkwall, Scotland

Kirkwall Airport

latitude: 58-57N, longitude: 002-54W, elevation: 21 m

Current weather observation

The report was made 32 minutes ago, at 04:20 UTC
Wind 9 kt from the East
Temperature 12°C
Humidity 94%
Pressure 998 hPa
Visibility: 5000 m

METAR: EGPA 220420Z AUTO 10009KT 5000 BKN007/// 12/11 Q0998

Time: 05:52 (04:52 UTC)

Forecast

The report was made 2 hours and 50 minutes ago, at 02:02 UTC
Forecast valid from 22 at 03 UTC to 22 at 12 UTC
Wind 9 kt from the East
Visibility 10 km or more
Scattered clouds at a height of 1500 ft
Temporary
from 22 at 03 UTC to 22 at 12 UTC
Visibility: 6000 m
Broken clouds at a height of 600 ft
light rain showers

TAF: EGPA 220202Z 2203/2212 08009KT 9999 SCT015 TEMPO 2203/2212 6000 -SHRA BKN006

Weather observations and forecasts of more than 4000 airports (METAR and TAF reports).

The available stations are represented by yellow and red dots on the map.

Hover mouse over dot to see the name of the station.

Then click to see weather observations and forecasts.

To change the map : click on the green buttons with a black cross to zoom in, on the green button with a dash to zoom out, or on the green arrows for adjacent maps.


METAR-TAF: